createdAt,value
2023-08-29T00:00:30.487Z,97955.97
2023-08-29T00:01:33.091Z,97962.47
2023-08-29T00:02:41.749Z,97959.56
2023-08-29T00:03:43.770Z,97967.66
2023-08-29T00:04:45.770Z,97969.91
2023-08-29T00:05:47.657Z,97964.81
2023-08-29T00:06:49.589Z,97968.13
2023-08-29T00:07:51.446Z,97965.22
2023-08-29T00:08:53.400Z,97972.84
2023-08-29T00:09:55.879Z,97965.06
2023-08-29T00:10:58.433Z,97963.44
2023-08-29T00:12:01.553Z,97963.75
2023-08-29T00:13:04.480Z,97969.78
2023-08-29T00:14:06.886Z,97975.16
2023-08-29T00:15:10.859Z,97977.34
2023-08-29T00:16:17.362Z,97974.16
2023-08-29T00:17:20.002Z,97980.69
2023-08-29T00:18:22.629Z,97974.78
2023-08-29T00:19:24.542Z,97982.91
2023-08-29T00:20:26.611Z,97973.81
2023-08-29T00:21:28.512Z,97979.22
2023-08-29T00:22:30.737Z,97967.91
2023-08-29T00:23:32.634Z,97973.63
2023-08-29T00:24:34.544Z,97966.94
2023-08-29T00:25:36.782Z,97975.81
2023-08-29T00:26:38.701Z,97976.13
2023-08-29T00:27:40.591Z,97975.34
2023-08-29T00:28:42.549Z,97974.84
2023-08-29T00:29:44.632Z,97977.03
2023-08-29T00:30:46.556Z,97978.94
2023-08-29T00:31:48.429Z,97978.16
2023-08-29T00:32:50.411Z,97981.94
2023-08-29T00:33:53.338Z,97975.28
2023-08-29T00:34:55.238Z,97977.16
2023-08-29T00:35:57.128Z,97981.78
2023-08-29T00:36:59.084Z,97980.19
2023-08-29T00:38:01.006Z,97977.00
2023-08-29T00:39:04.789Z,97973.50
2023-08-29T00:40:08.301Z,97971.06
2023-08-29T00:41:12.094Z,97977.28
2023-08-29T00:42:14.140Z,97984.56
2023-08-29T00:43:16.218Z,97986.00
2023-08-29T00:44:18.623Z,97985.50
2023-08-29T00:45:21.045Z,97992.50
2023-08-29T00:46:27.212Z,97992.19
2023-08-29T00:47:29.714Z,97988.50
2023-08-29T00:48:32.884Z,97988.03
2023-08-29T00:49:34.984Z,97984.53
2023-08-29T00:50:38.600Z,97991.03
2023-08-29T00:51:41.479Z,97993.72
2023-08-29T00:52:43.455Z,97990.50
2023-08-29T00:53:45.983Z,97992.41
2023-08-29T00:54:48.414Z,97987.00
2023-08-29T00:55:50.714Z,97986.53
2023-08-29T00:56:52.753Z,97986.53
2023-08-29T00:58:00.797Z,97985.25
2023-08-29T00:59:04.049Z,97988.44
2023-08-29T01:00:07.929Z,97981.75
2023-08-29T01:01:10.067Z,97985.25
2023-08-29T01:02:12.129Z,97985.84
2023-08-29T01:03:14.187Z,97987.75
2023-08-29T01:04:16.709Z,97979.09
2023-08-29T01:05:19.068Z,97987.22
2023-08-29T01:06:21.072Z,97987.22
2023-08-29T01:07:23.006Z,97978.63
2023-08-29T01:08:25.440Z,97979.41
2023-08-29T01:09:27.519Z,97984.81
2023-08-29T01:11:01.345Z,97981.44
2023-08-29T01:12:20.595Z,97981.03
2023-08-29T01:13:34.957Z,97973.66
2023-08-29T01:14:55.541Z,97978.31
2023-08-29T01:16:04.639Z,97978.84
2023-08-29T01:17:45.094Z,97966.44
2023-08-29T01:18:48.105Z,97971.31
2023-08-29T01:19:53.848Z,97967.34
2023-08-29T01:21:15.927Z,97961.31
2023-08-29T01:22:28.222Z,97967.81
2023-08-29T01:23:44.107Z,97972.13
2023-08-29T01:24:50.935Z,97969.84
2023-08-29T01:26:15.542Z,97969.34
2023-08-29T01:27:20.869Z,97966.06
2023-08-29T01:28:24.127Z,97974.56
2023-08-29T01:29:27.094Z,97962.97
2023-08-29T01:30:29.891Z,97972.47
2023-08-29T01:31:35.732Z,97972.16
2023-08-29T01:32:40.126Z,97967.06
2023-08-29T01:33:43.510Z,97966.28
2023-08-29T01:34:45.919Z,97968.47
2023-08-29T01:35:48.585Z,97969.28
2023-08-29T01:36:50.959Z,97973.88
2023-08-29T01:37:53.024Z,97972.56
2023-08-29T01:38:55.205Z,97969.06
2023-08-29T01:39:57.126Z,97973.66
2023-08-29T01:40:59.111Z,97973.66
2023-08-29T01:42:00.969Z,97972.06
2023-08-29T01:43:02.859Z,97970.47
2023-08-29T01:44:06.864Z,97972.88
2023-08-29T01:45:09.408Z,97967.47
2023-08-29T01:46:11.454Z,97967.47
2023-08-29T01:47:13.357Z,97967.78
2023-08-29T01:48:15.555Z,97963.47
2023-08-29T01:49:18.113Z,97960.00
2023-08-29T01:50:21.734Z,97963.47
2023-08-29T01:51:23.702Z,97961.88
2023-08-29T01:52:26.396Z,97961.88
2023-08-29T01:53:28.358Z,97960.28
2023-08-29T01:54:30.382Z,97956.50
2023-08-29T01:55:33.941Z,97957.91
2023-08-29T01:56:38.260Z,97957.09
2023-08-29T01:57:41.391Z,97956.81
2023-08-29T01:58:45.239Z,97947.13
2023-08-29T01:59:48.248Z,97950.59
2023-08-29T02:00:51.808Z,97957.09
2023-08-29T02:01:53.868Z,97955.22
2023-08-29T02:02:56.064Z,97947.91
2023-08-29T02:03:58.089Z,97954.41
2023-08-29T02:05:00.087Z,97950.91
2023-08-29T02:06:02.030Z,97953.59
2023-08-29T02:07:04.010Z,97950.91
2023-08-29T02:08:06.488Z,97955.50
2023-08-29T02:09:08.848Z,97955.78
2023-08-29T02:10:11.775Z,97955.28
2023-08-29T02:11:13.805Z,97954.19
2023-08-29T02:12:15.731Z,97959.91
2023-08-29T02:13:17.564Z,97959.91
2023-08-29T02:14:19.523Z,97958.00
2023-08-29T02:15:21.464Z,97956.41
2023-08-29T02:16:25.708Z,97953.69
2023-08-29T02:17:28.443Z,97954.50
2023-08-29T02:18:31.050Z,97944.03
2023-08-29T02:19:32.903Z,97956.41
2023-08-29T02:20:37.625Z,97951.00
2023-08-29T02:21:39.566Z,97950.50
2023-08-29T02:22:41.526Z,97947.81
2023-08-29T02:23:43.448Z,97949.72
2023-08-29T02:24:48.708Z,97944.31
2023-08-29T02:26:03.321Z,97947.13
2023-08-29T02:27:05.984Z,97952.91
2023-08-29T02:28:08.074Z,97946.22
2023-08-29T02:29:10.177Z,97940.03
2023-08-29T02:30:12.511Z,97945.44
2023-08-29T02:31:14.845Z,97937.34
2023-08-29T02:32:18.956Z,97938.44
2023-08-29T02:33:20.848Z,97931.44
2023-08-29T02:34:23.036Z,97935.25
2023-08-29T02:35:25.222Z,97938.75
2023-08-29T02:36:27.159Z,97934.44
2023-08-29T02:37:29.120Z,97937.44
2023-08-29T02:38:31.773Z,97936.31
2023-08-29T02:39:33.706Z,97939.03
2023-08-29T02:40:35.649Z,97934.72
2023-08-29T02:41:38.155Z,97943.13
2023-08-29T02:42:40.142Z,97939.31
2023-08-29T02:43:42.120Z,97941.22
2023-08-29T02:44:44.225Z,97937.25
2023-08-29T02:45:46.105Z,97937.72
2023-08-29T02:46:47.996Z,97939.94
2023-08-29T02:47:49.961Z,97942.31
2023-08-29T02:48:51.935Z,97935.34
2023-08-29T02:49:53.882Z,97943.44
2023-08-29T02:50:55.861Z,97940.25
2023-08-29T02:51:58.083Z,97945.63
2023-08-29T02:53:00.383Z,97935.94
2023-08-29T02:54:03.211Z,97935.16
2023-08-29T02:55:07.185Z,97932.47
2023-08-29T02:56:09.159Z,97933.25
2023-08-29T02:57:11.092Z,97933.25
2023-08-29T02:58:13.105Z,97925.16
2023-08-29T02:59:15.097Z,97919.28
2023-08-29T03:00:17.611Z,97916.88
2023-08-29T03:01:20.358Z,97925.78
2023-08-29T03:02:22.304Z,97925.78
2023-08-29T03:03:24.919Z,97920.66
2023-08-29T03:04:27.487Z,97921.47
2023-08-29T03:05:29.417Z,97927.94
2023-08-29T03:06:31.278Z,97930.34
2023-08-29T03:07:33.301Z,97926.06
2023-08-29T03:08:36.058Z,97919.88
2023-08-29T03:09:38.032Z,97930.66
2023-08-29T03:10:40.114Z,97920.16
2023-08-29T03:11:42.014Z,97926.34
2023-08-29T03:12:44.177Z,97923.16
2023-08-29T03:13:46.056Z,97921.28
2023-08-29T03:14:47.997Z,97914.78
2023-08-29T03:15:50.472Z,97921.28
2023-08-29T03:16:52.363Z,97918.56
2023-08-29T03:17:54.292Z,97917.78
2023-08-29T03:18:56.544Z,97921.28
2023-08-29T03:19:58.491Z,97914.28
2023-08-29T03:21:06.416Z,97923.34
2023-08-29T03:22:08.278Z,97911.28
2023-08-29T03:23:10.793Z,97917.25
2023-08-29T03:24:12.695Z,97911.06
2023-08-29T03:25:14.605Z,97917.25
2023-08-29T03:26:16.542Z,97911.06
2023-08-29T03:27:18.937Z,97911.06
2023-08-29T03:28:20.837Z,97908.69
2023-08-29T03:29:22.782Z,97906.78
2023-08-29T03:30:27.696Z,97909.16
2023-08-29T03:31:29.917Z,97909.78
2023-08-29T03:32:32.133Z,97910.56
2023-08-29T03:33:34.153Z,97900.06
2023-08-29T03:34:36.067Z,97898.47
2023-08-29T03:35:38.059Z,97904.66
2023-08-29T03:36:40.105Z,97901.69
2023-08-29T03:37:42.118Z,97900.06
2023-08-29T03:38:44.520Z,97901.69
2023-08-29T03:39:46.640Z,97897.38
2023-08-29T03:40:57.750Z,97894.59
2023-08-29T03:41:59.680Z,97896.28
2023-08-29T03:43:01.553Z,97893.09
2023-08-29T03:44:04.476Z,97896.88
2023-08-29T03:45:08.065Z,97894.97
2023-08-29T03:46:11.133Z,97901.47
2023-08-29T03:47:13.235Z,97902.56
2023-08-29T03:48:28.220Z,97901.47
2023-08-29T03:49:31.103Z,97895.78
2023-08-29T03:50:32.975Z,97897.69
2023-08-29T03:51:35.146Z,97895.28
2023-08-29T03:52:37.146Z,97899.09
2023-08-29T03:53:39.330Z,97902.88
2023-08-29T03:54:41.275Z,97903.69
2023-08-29T03:55:43.740Z,97901.28
2023-08-29T03:56:45.977Z,97906.69
2023-08-29T03:57:47.863Z,97904.28
2023-08-29T03:58:50.375Z,97900.50
2023-08-29T03:59:52.345Z,97910.47
2023-08-29T04:00:55.269Z,97908.88
2023-08-29T04:01:57.228Z,97905.09
2023-08-29T04:03:00.948Z,97900.00
2023-08-29T04:04:04.631Z,97905.38
2023-08-29T04:05:19.287Z,97904.16
2023-08-29T04:06:22.217Z,97905.09
2023-08-29T04:07:24.188Z,97906.19
2023-08-29T04:08:26.209Z,97897.59
2023-08-29T04:09:28.360Z,97904.59
2023-08-29T04:10:30.419Z,97903.00
2023-08-29T04:11:32.303Z,97901.38
2023-08-29T04:12:34.170Z,97905.69
2023-08-29T04:13:36.064Z,97901.38
2023-08-29T04:14:38.299Z,97905.16
2023-08-29T04:15:40.236Z,97901.38
2023-08-29T04:16:42.200Z,97901.69
2023-08-29T04:17:44.186Z,97907.88
2023-08-29T04:18:46.353Z,97903.56
2023-08-29T04:19:49.078Z,97907.88
2023-08-29T04:20:51.025Z,97899.78
2023-08-29T04:21:52.995Z,97903.56
2023-08-29T04:22:56.145Z,97905.78
2023-08-29T04:23:58.267Z,97906.28
2023-08-29T04:25:00.524Z,97901.97
2023-08-29T04:26:04.434Z,97899.28
2023-08-29T04:27:06.372Z,97900.38
2023-08-29T04:28:08.741Z,97909.28
2023-08-29T04:29:10.929Z,97903.09
2023-08-29T04:30:12.942Z,97898.50
2023-08-29T04:31:14.923Z,97907.69
2023-08-29T04:32:16.872Z,97901.50
2023-08-29T04:33:19.099Z,97909.56
2023-08-29T04:34:24.497Z,97906.88
2023-08-29T04:35:26.816Z,97905.78
2023-08-29T04:36:28.909Z,97908.78
2023-08-29T04:37:30.826Z,97907.97
2023-08-29T04:38:33.030Z,97907.97
2023-08-29T04:39:37.171Z,97912.28
2023-08-29T04:40:40.886Z,97905.28
2023-08-29T04:41:42.807Z,97906.38
2023-08-29T04:42:48.900Z,97905.78
2023-08-29T04:43:50.769Z,97905.28
2023-08-29T04:44:54.797Z,97906.38
2023-08-29T04:45:57.394Z,97903.69
2023-08-29T04:46:59.434Z,97910.19
2023-08-29T04:48:01.524Z,97906.69
2023-08-29T04:49:04.872Z,97903.19
2023-08-29T04:50:09.150Z,97903.19
2023-08-29T04:51:11.101Z,97897.00
2023-08-29T04:52:13.032Z,97903.19
2023-08-29T04:53:15.027Z,97900.78
2023-08-29T04:54:16.900Z,97901.59
2023-08-29T04:55:18.817Z,97901.59
2023-08-29T04:56:20.748Z,97899.97
2023-08-29T04:57:23.089Z,97905.38
2023-08-29T04:58:24.982Z,97903.78
2023-08-29T04:59:27.226Z,97903.78
2023-08-29T05:00:30.010Z,97895.69
2023-08-29T05:01:31.982Z,97901.06
2023-08-29T05:02:34.616Z,97899.50
2023-08-29T05:03:36.690Z,97896.78
2023-08-29T05:04:40.230Z,97901.38
2023-08-29T05:05:47.638Z,97890.00
2023-08-29T05:06:50.040Z,97896.00
2023-08-29T05:07:52.240Z,97899.78
2023-08-29T05:08:54.080Z,97893.59
2023-08-29T05:09:57.186Z,97892.81
2023-08-29T05:10:59.057Z,97888.22
2023-08-29T05:12:00.957Z,97894.69
2023-08-29T05:13:02.926Z,97885.53
2023-08-29T05:14:04.953Z,97895.81
2023-08-29T05:15:07.534Z,97892.00
2023-08-29T05:16:09.547Z,97890.91
2023-08-29T05:17:11.715Z,97894.69
2023-08-29T05:18:13.684Z,97893.91
2023-08-29T05:19:15.657Z,97895.81
2023-08-29T05:20:17.634Z,97899.59
2023-08-29T05:21:19.742Z,97896.91
2023-08-29T05:22:21.722Z,97885.34
2023-08-29T05:23:24.033Z,97899.59
2023-08-29T05:24:25.978Z,97896.91
2023-08-29T05:25:27.868Z,97897.22
2023-08-29T05:26:29.808Z,97889.91
2023-08-29T05:27:31.684Z,97896.41
2023-08-29T05:28:33.602Z,97899.09
2023-08-29T05:29:35.519Z,97898.31
2023-08-29T05:30:37.512Z,97892.09
2023-08-29T05:31:39.861Z,97894.78
2023-08-29T05:32:41.920Z,97897.47
2023-08-29T05:33:43.820Z,97889.41
2023-08-29T05:34:45.752Z,97896.69
2023-08-29T05:35:47.661Z,97891.28
2023-08-29T05:36:50.869Z,97896.69
2023-08-29T05:37:52.837Z,97898.31
2023-08-29T05:38:54.774Z,97898.59
2023-08-29T05:39:56.883Z,97896.69
2023-08-29T05:40:58.801Z,97894.00
2023-08-29T05:42:00.761Z,97896.19
2023-08-29T05:43:02.746Z,97897.00
2023-08-29T05:44:04.832Z,97889.22
2023-08-29T05:45:07.361Z,97907.75
2023-08-29T05:46:09.295Z,97896.50
2023-08-29T05:47:11.443Z,97901.56
2023-08-29T05:48:13.456Z,97899.69
2023-08-29T05:49:16.360Z,97905.38
2023-08-29T05:50:18.417Z,97907.75
2023-08-29T05:51:20.309Z,97897.28
2023-08-29T05:52:22.258Z,97907.28
2023-08-29T05:53:24.233Z,97909.16
2023-08-29T05:54:26.226Z,97909.16
2023-08-29T05:55:28.109Z,97909.97
2023-08-29T05:56:30.168Z,97916.94
2023-08-29T05:57:32.107Z,97911.56
2023-08-29T05:58:34.055Z,97911.06
2023-08-29T05:59:35.971Z,97907.56
2023-08-29T06:00:38.812Z,97915.66
2023-08-29T06:01:40.801Z,97917.56
2023-08-29T06:02:42.787Z,97912.97
2023-08-29T06:03:44.817Z,97916.44
2023-08-29T06:04:47.452Z,97918.03
2023-08-29T06:05:50.808Z,97919.16
2023-08-29T06:06:52.670Z,97918.84
2023-08-29T06:07:59.423Z,97919.94
2023-08-29T06:09:11.537Z,97926.13
2023-08-29T06:10:13.809Z,97921.84
2023-08-29T06:11:16.146Z,97917.56
2023-08-29T06:12:18.090Z,97921.84
2023-08-29T06:13:20.051Z,97922.16
2023-08-29T06:14:22.050Z,97929.13
2023-08-29T06:15:24.053Z,97927.53
2023-08-29T06:16:26.044Z,97927.22
2023-08-29T06:17:28.113Z,97925.34
2023-08-29T06:18:30.526Z,97922.63
2023-08-29T06:19:32.462Z,97926.13
2023-08-29T06:20:35.462Z,97924.22
2023-08-29T06:21:37.369Z,97922.34
2023-08-29T06:22:39.591Z,97925.34
2023-08-29T06:23:41.527Z,97926.13
2023-08-29T06:24:43.647Z,97926.13
2023-08-29T06:25:46.205Z,97933.13
2023-08-29T06:26:48.149Z,97939.31
2023-08-29T06:27:49.973Z,97939.31
2023-08-29T06:28:51.855Z,97935.81
2023-08-29T06:29:53.734Z,97938.50
2023-08-29T06:30:55.808Z,97943.88
2023-08-29T06:31:57.767Z,97940.09
2023-08-29T06:32:59.685Z,97941.69
2023-08-29T06:34:01.638Z,97940.91
2023-08-29T06:35:04.058Z,97938.19
2023-08-29T06:36:06.635Z,97940.91
2023-08-29T06:37:08.634Z,97940.91
2023-08-29T06:38:10.753Z,97943.59
2023-08-29T06:39:12.738Z,97940.91
2023-08-29T06:40:14.688Z,97936.91
2023-08-29T06:41:16.603Z,97951.78
2023-08-29T06:42:18.649Z,97953.56
2023-08-29T06:43:20.604Z,97947.09
2023-08-29T06:44:22.539Z,97958.66
2023-08-29T06:45:26.361Z,97953.28
2023-08-29T06:46:28.751Z,97947.59
2023-08-29T06:47:30.739Z,97953.78
2023-08-29T06:48:32.927Z,97947.59
2023-08-29T06:49:34.850Z,97954.59
2023-08-29T06:50:36.827Z,97953.00
2023-08-29T06:51:39.264Z,97956.50
2023-08-29T06:52:41.173Z,97953.78
2023-08-29T06:53:43.188Z,97952.69
2023-08-29T06:54:45.157Z,97960.78
2023-08-29T06:55:48.106Z,97952.69
2023-08-29T06:56:52.651Z,97958.88
2023-08-29T06:57:54.636Z,97959.97
2023-08-29T06:58:56.539Z,97953.50
2023-08-29T06:59:58.488Z,97959.97
2023-08-29T07:01:00.570Z,97964.28
2023-08-29T07:02:02.498Z,97960.78
2023-08-29T07:03:05.487Z,97966.97
2023-08-29T07:04:09.425Z,97966.97
2023-08-29T07:05:11.411Z,97965.06
2023-08-29T07:06:13.312Z,97965.06
2023-08-29T07:07:15.892Z,97968.88
2023-08-29T07:08:17.825Z,97959.47
2023-08-29T07:09:19.713Z,97969.66
2023-08-29T07:10:21.681Z,97970.47
2023-08-29T07:11:23.677Z,97967.25
2023-08-29T07:12:26.098Z,97972.66
2023-08-29T07:13:28.012Z,97971.56
2023-08-29T07:14:29.995Z,97971.84
2023-08-29T07:15:32.129Z,97974.25
2023-08-29T07:16:34.188Z,97970.75
2023-08-29T07:17:36.818Z,97978.03
2023-08-29T07:18:38.764Z,97976.16
2023-08-29T07:19:40.768Z,97975.34
2023-08-29T07:20:43.116Z,97976.16
2023-08-29T07:21:45.585Z,97977.75
2023-08-29T07:22:47.563Z,97980.44
2023-08-29T07:23:49.461Z,97983.13
2023-08-29T07:24:52.769Z,97981.53
2023-08-29T07:25:54.978Z,97975.06
2023-08-29T07:26:57.769Z,97978.03
2023-08-29T07:28:00.261Z,97982.34
2023-08-29T07:29:02.291Z,97980.44
2023-08-29T07:30:05.544Z,97981.53
2023-08-29T07:31:07.910Z,97982.34
2023-08-29T07:32:09.981Z,97976.94
2023-08-29T07:33:12.951Z,97979.94
2023-08-29T07:34:16.845Z,97977.25
2023-08-29T07:35:18.751Z,97981.53
2023-08-29T07:36:21.836Z,97986.94
2023-08-29T07:37:26.730Z,97988.53
2023-08-29T07:38:28.652Z,97993.13
2023-08-29T07:39:30.918Z,97997.88
2023-08-29T07:40:34.843Z,97990.50
2023-08-29T07:41:36.725Z,97991.00
2023-08-29T07:42:38.732Z,97995.00
2023-08-29T07:43:40.627Z,97993.13
2023-08-29T07:44:42.646Z,97995.00
2023-08-29T07:45:46.192Z,98003.91
2023-08-29T07:47:07.786Z,98004.69
2023-08-29T07:48:10.642Z,98003.00
2023-08-29T07:49:21.380Z,98005.19
2023-08-29T07:50:23.407Z,98010.56
2023-08-29T07:51:25.370Z,98015.16
2023-08-29T07:52:27.436Z,98012.78
2023-08-29T07:53:29.312Z,98008.47
2023-08-29T07:54:31.305Z,98013.56
2023-08-29T07:55:33.424Z,98005.50
2023-08-29T07:56:35.320Z,98005.78
2023-08-29T07:57:37.246Z,97999.59
2023-08-29T07:58:39.149Z,98011.19
2023-08-29T07:59:41.327Z,98011.19
2023-08-29T08:00:43.995Z,98011.69
2023-08-29T08:01:47.877Z,98004.19
2023-08-29T08:02:49.931Z,98014.66
2023-08-29T08:03:51.940Z,98018.47
2023-08-29T08:04:53.834Z,98021.16
2023-08-29T08:05:56.406Z,98016.56
2023-08-29T08:06:58.444Z,98013.06
2023-08-29T08:08:01.346Z,98011.19
2023-08-29T08:09:05.733Z,98011.19
2023-08-29T08:10:08.973Z,98013.88
2023-08-29T08:11:10.974Z,98021.34
2023-08-29T08:12:12.868Z,98020.06
2023-08-29T08:13:14.768Z,98017.38
2023-08-29T08:14:18.463Z,98019.25
2023-08-29T08:15:21.708Z,98019.75
2023-08-29T08:16:23.812Z,98018.97
2023-08-29T08:17:25.937Z,98019.75
2023-08-29T08:18:27.906Z,98019.47
2023-08-29T08:19:30.601Z,98018.66
2023-08-29T08:20:32.585Z,98015.66
2023-08-29T08:21:34.607Z,98015.47
2023-08-29T08:22:38.930Z,98016.75
2023-08-29T08:23:40.974Z,98017.56
2023-08-29T08:24:43.357Z,98019.16
2023-08-29T08:25:45.619Z,98026.44
2023-08-29T08:26:47.587Z,98021.84
2023-08-29T08:27:49.496Z,98019.97
2023-08-29T08:28:51.457Z,98026.16
2023-08-29T08:29:53.417Z,98028.84
2023-08-29T08:30:55.360Z,98032.03
2023-08-29T08:31:57.362Z,98024.47
2023-08-29T08:32:59.319Z,98031.47
2023-08-29T08:34:01.800Z,98030.97
2023-08-29T08:35:08.429Z,98025.78
2023-08-29T08:36:10.608Z,98031.66
2023-08-29T08:37:12.571Z,98032.44
2023-08-29T08:38:14.587Z,98035.94
2023-08-29T08:39:16.517Z,98035.94
2023-08-29T08:40:18.524Z,98031.06
2023-08-29T08:41:20.608Z,98028.66
2023-08-29T08:42:22.999Z,98032.94
2023-08-29T08:43:25.831Z,98027.25
2023-08-29T08:44:28.131Z,98032.94
2023-08-29T08:45:30.493Z,98032.66
2023-08-29T08:46:35.337Z,98031.28
2023-08-29T08:47:38.827Z,98026.69
2023-08-29T08:48:40.959Z,98030.19
2023-08-29T08:49:44.016Z,98033.69
2023-08-29T08:50:48.400Z,98035.56
2023-08-29T08:51:50.319Z,98034.16
2023-08-29T08:52:53.317Z,98034.78
2023-08-29T08:53:55.613Z,98040.66
2023-08-29T08:54:57.631Z,98040.66
2023-08-29T08:56:00.823Z,98039.88
2023-08-29T08:57:03.749Z,98037.97
2023-08-29T08:58:06.636Z,98038.47
2023-08-29T08:59:10.415Z,98040.34
2023-08-29T09:00:13.191Z,98042.75
2023-08-29T09:01:15.282Z,98041.97
2023-08-29T09:02:19.703Z,98036.25
2023-08-29T09:03:21.706Z,98038.16
2023-08-29T09:04:25.147Z,98037.06
2023-08-29T09:05:27.127Z,98033.56
2023-08-29T09:06:30.159Z,98037.06
2023-08-29T09:07:32.069Z,98035.16
2023-08-29T09:08:35.348Z,98035.97
2023-08-29T09:09:37.298Z,98037.56
2023-08-29T09:10:40.791Z,98035.97
2023-08-29T09:11:53.122Z,98030.72
2023-08-29T09:12:57.871Z,98045.06
2023-08-29T09:14:00.575Z,98033.50
2023-08-29T09:15:06.241Z,98033.19
2023-08-29T09:16:08.790Z,98032.69
2023-08-29T09:17:11.944Z,98027.59
2023-08-29T09:18:16.388Z,98032.69
2023-08-29T09:19:20.735Z,98034.28
2023-08-29T09:20:29.693Z,98028.81
2023-08-29T09:21:32.672Z,98036.19
2023-08-29T09:22:35.782Z,98037.78
2023-08-29T09:23:39.117Z,98032.91
2023-08-29T09:24:41.038Z,98037.78
2023-08-29T09:25:42.962Z,98034.28
2023-08-29T09:26:44.925Z,98031.59
2023-08-29T09:27:50.624Z,98031.50
2023-08-29T09:28:52.516Z,98034.78
2023-08-29T09:29:54.458Z,98027.53
2023-08-29T09:31:10.950Z,98031.44
2023-08-29T09:32:17.025Z,98028.25
2023-08-29T09:33:22.981Z,98043.31
2023-08-29T09:34:24.864Z,98033.09
2023-08-29T09:35:27.856Z,98035.31
2023-08-29T09:36:29.829Z,98030.72
2023-08-29T09:37:31.776Z,98036.91
2023-08-29T09:38:37.290Z,98040.09
2023-08-29T09:39:39.794Z,98045.50
2023-08-29T09:40:53.056Z,98035.91
2023-08-29T09:42:11.459Z,98046.31
2023-08-29T09:43:17.035Z,98040.81
2023-08-29T09:44:18.995Z,98041.13
2023-08-29T09:45:21.107Z,98040.63
2023-08-29T09:46:27.085Z,98048.09
2023-08-29T09:47:30.470Z,98043.00
2023-08-29T09:48:32.986Z,98043.31
2023-08-29T09:49:51.121Z,98044.19
2023-08-29T09:50:53.396Z,98050.00
2023-08-29T09:52:02.167Z,98038.13
2023-08-29T09:53:05.104Z,98040.81
2023-08-29T09:54:12.061Z,98036.22
2023-08-29T09:55:18.233Z,98040.50
2023-08-29T09:56:25.445Z,98041.00
2023-08-29T09:57:32.471Z,98043.22
2023-08-29T09:58:36.512Z,98043.50
2023-08-29T09:59:42.525Z,98037.31
2023-08-29T10:00:45.111Z,98046.22
2023-08-29T10:01:50.634Z,98031.94
2023-08-29T10:03:01.190Z,98040.44
2023-08-29T10:04:07.949Z,98036.63
2023-08-29T10:05:11.840Z,98035.59
2023-08-29T10:06:19.050Z,98035.31
2023-08-29T10:07:30.051Z,98042.22
2023-08-29T10:08:44.226Z,98033.31
2023-08-29T10:09:46.713Z,98042.81
2023-08-29T10:10:49.577Z,98035.03
2023-08-29T10:11:54.639Z,98041.50
2023-08-29T10:13:00.151Z,98033.94
2023-08-29T10:14:05.416Z,98039.59
2023-08-29T10:15:09.317Z,98039.59
2023-08-29T10:16:15.315Z,98049.00
2023-08-29T10:17:29.782Z,98042.03
2023-08-29T10:18:35.752Z,98047.91
2023-08-29T10:19:39.515Z,98050.59
2023-08-29T10:20:45.126Z,98039.81
2023-08-29T10:21:50.603Z,98043.00
2023-08-29T10:22:54.148Z,98039.81
2023-08-29T10:23:56.812Z,98045.22
2023-08-29T10:25:02.032Z,98042.53
2023-08-29T10:26:04.365Z,98042.53
2023-08-29T10:27:06.555Z,98040.91
2023-08-29T10:28:12.053Z,98036.81
2023-08-29T10:29:13.998Z,98041.41
2023-08-29T10:30:16.386Z,98036.81
2023-08-29T10:31:20.828Z,98040.31
2023-08-29T10:32:27.725Z,98040.00
2023-08-29T10:33:30.066Z,98041.13
2023-08-29T10:34:32.184Z,98033.81
2023-08-29T10:35:35.041Z,98039.50
2023-08-29T10:36:39.818Z,98037.00
2023-08-29T10:37:41.777Z,98037.63
2023-08-29T10:38:49.189Z,98041.31
2023-08-29T10:39:53.775Z,98042.41
2023-08-29T10:41:07.958Z,98042.00
2023-08-29T10:42:10.065Z,98039.13
2023-08-29T10:43:19.501Z,98033.13
2023-08-29T10:44:33.324Z,98039.50
2023-08-29T10:45:53.193Z,98039.41
2023-08-29T10:46:55.604Z,98036.94
2023-08-29T10:47:57.653Z,98032.94
2023-08-29T10:48:59.939Z,98032.09
2023-08-29T10:50:06.187Z,98029.72
2023-08-29T10:51:12.463Z,98032.94
2023-08-29T10:52:15.342Z,98026.72
2023-08-29T10:53:20.755Z,98027.25
2023-08-29T10:54:30.887Z,98020.63
2023-08-29T10:55:35.807Z,98030.72
2023-08-29T10:56:44.001Z,98031.41
2023-08-29T10:57:46.052Z,98029.94
2023-08-29T10:58:52.368Z,98030.72
2023-08-29T10:59:54.982Z,98023.44
2023-08-29T11:00:58.216Z,98030.72
2023-08-29T11:02:28.031Z,98026.91
2023-08-29T11:03:40.795Z,98029.13
2023-08-29T11:04:55.973Z,98030.91
2023-08-29T11:05:58.890Z,98024.72
2023-08-29T11:07:02.133Z,98022.34
2023-08-29T11:08:23.208Z,98029.63
2023-08-29T11:09:26.403Z,98029.81
2023-08-29T11:10:28.363Z,98030.91
2023-08-29T11:11:30.316Z,98023.44
2023-08-29T11:12:32.185Z,98019.63
2023-08-29T11:13:34.910Z,98022.34
2023-08-29T11:14:57.142Z,98016.44
2023-08-29T11:15:59.581Z,98011.44
2023-08-29T11:17:14.059Z,98009.44
2023-08-29T11:18:25.445Z,98006.75
2023-08-29T11:19:27.696Z,98005.22
2023-08-29T11:20:33.314Z,98014.44
2023-08-29T11:21:35.288Z,98016.34
2023-08-29T11:22:38.915Z,98018.22
2023-08-29T11:23:43.500Z,98017.94
2023-08-29T11:24:45.395Z,98019.81
2023-08-29T11:25:51.643Z,98019.22
2023-08-29T11:26:58.423Z,98017.13
2023-08-29T11:28:01.261Z,98022.22
2023-08-29T11:29:06.840Z,98020.03
2023-08-29T11:30:24.905Z,98021.91
2023-08-29T11:31:31.386Z,98015.94
2023-08-29T11:32:34.190Z,98007.03
2023-08-29T11:33:38.393Z,98016.25
2023-08-29T11:34:40.402Z,98017.03
2023-08-29T11:35:43.735Z,98009.25
2023-08-29T11:36:52.672Z,98010.41
2023-08-29T11:37:55.480Z,98005.94
2023-08-29T11:39:00.889Z,98011.34
2023-08-29T11:40:12.370Z,98011.84
2023-08-29T11:41:36.117Z,98010.41
2023-08-29T11:43:38.128Z,98012.81
2023-08-29T11:45:02.180Z,98012.22
2023-08-29T11:45:48.349Z,98010.34
2023-08-29T11:46:52.042Z,98016.53
2023-08-29T11:47:54.325Z,98016.03
2023-08-29T11:48:56.185Z,98010.91
2023-08-29T11:49:58.019Z,98008.53
2023-08-29T11:51:09.540Z,98014.31
2023-08-29T11:52:11.689Z,98013.34
2023-08-29T11:53:23.347Z,98020.22
2023-08-29T11:54:48.513Z,98018.72
2023-08-29T11:55:51.919Z,98017.81
2023-08-29T11:56:57.178Z,98025.13
2023-08-29T11:57:59.649Z,98024.63
2023-08-29T11:59:02.032Z,98019.53
2023-08-29T12:00:09.337Z,98014.94
2023-08-29T12:01:12.099Z,98018.44
2023-08-29T12:02:19.822Z,98020.81
2023-08-29T12:03:24.737Z,98026.22
2023-08-29T12:04:28.510Z,98020.81
2023-08-29T12:05:32.423Z,98024.00
2023-08-29T12:06:34.336Z,98017.00
2023-08-29T12:07:36.266Z,98022.09
2023-08-29T12:08:44.156Z,98014.50
2023-08-29T12:09:48.401Z,98021.31
2023-08-29T12:10:54.359Z,98016.09
2023-08-29T12:11:56.977Z,98020.22
2023-08-29T12:13:12.548Z,98015.72
2023-08-29T12:14:14.465Z,98016.88
2023-08-29T12:15:24.225Z,98016.81
2023-08-29T12:16:32.991Z,98017.31
2023-08-29T12:17:48.587Z,98019.41
2023-08-29T12:18:51.569Z,98014.19
2023-08-29T12:19:54.994Z,98019.59
2023-08-29T12:21:18.343Z,98016.13
2023-08-29T12:22:31.350Z,98015.59
2023-08-29T12:23:33.228Z,98020.63
2023-08-29T12:24:35.133Z,98018.50
2023-08-29T12:25:37.018Z,98017.69
2023-08-29T12:26:39.175Z,98024.19
2023-08-29T12:27:41.227Z,98021.50
2023-08-29T12:28:43.226Z,98019.91
2023-08-29T12:29:45.077Z,98020.69